Time,TemperatureF,DewpointF,PressureIn,WindDirection,WindDirectionDegrees,WindSpeedMPH,WindSpeedGustMPH,Humidity,HourlyPrecipIn,Conditions,Clouds,dailyrainin,SoftwareType,DateUTC
2013-02-27 00:12:00,40.5,34.0,30.11,NE,47,0.0,2.0,76,0.00,,,0.00,weatherlink.com 1.10,2013-02-27 08:12:00,
2013-02-27 00:27:00,40.3,34.0,30.11,ENE,64,0.0,2.0,77,0.00,,,0.00,weatherlink.com 1.10,2013-02-27 08:27:00,
2013-02-27 00:43:00,39.9,33.0,30.11,NNW,341,0.0,3.0,77,0.00,,,0.00,weatherlink.com 1.10,2013-02-27 08:43:00,
2013-02-27 00:58:00,39.6,33.0,30.11,NE,53,0.0,1.0,78,0.00,,,0.00,weatherlink.com 1.10,2013-02-27 08:58:00,
2013-02-27 01:13:00,39.9,34.0,30.12,ENE,65,0.0,3.0,78,0.00,,,0.00,weatherlink.com 1.10,2013-02-27 09:13:00,
2013-02-27 01:28:00,40.2,34.0,30.12,ENE,64,0.0,1.0,77,0.00,,,0.00,weatherlink.com 1.10,2013-02-27 09:28:00,
2013-02-27 01:43:00,40.1,33.0,30.13,NE,55,1.0,2.0,77,0.00,,,0.00,weatherlink.com 1.10,2013-02-27 09:43:00,
2013-02-27 01:58:00,39.6,33.0,30.12,NNE,29,1.0,2.0,78,0.00,,,0.00,weatherlink.com 1.10,2013-02-27 09:58:00,
2013-02-27 02:13:00,39.3,33.0,30.12,NE,43,1.0,3.0,79,0.00,,,0.00,weatherlink.com 1.10,2013-02-27 10:13:00,
2013-02-27 02:28:00,38.9,33.0,30.12,NNE,25,1.0,2.0,80,0.00,,,0.00,weatherlink.com 1.10,2013-02-27 10:28:00,
2013-02-27 02:43:00,38.9,33.0,30.12,NE,48,2.0,2.0,80,0.00,,,0.00,weatherlink.com 1.10,2013-02-27 10:43:00,
2013-02-27 02:58:00,38.7,33.0,30.12,NNE,29,1.0,4.0,80,0.00,,,0.00,weatherlink.com 1.10,2013-02-27 10:58:00,
2013-02-27 03:13:00,38.7,33.0,30.13,NE,42,2.0,2.0,80,0.00,,,0.00,weatherlink.com 1.10,2013-02-27 11:13:00,
2013-02-27 03:28:00,38.6,33.0,30.13,NE,46,2.0,2.0,80,0.00,,,0.00,weatherlink.com 1.10,2013-02-27 11:28:00,
2013-02-27 03:43:00,38.2,33.0,30.14,NE,55,1.0,2.0,81,0.00,,,0.00,weatherlink.com 1.10,2013-02-27 11:43:00,
2013-02-27 03:58:00,38.0,33.0,30.14,NE,48,2.0,3.0,82,0.00,,,0.00,weatherlink.com 1.10,2013-02-27 11:58:00,
2013-02-27 04:13:00,37.6,33.0,30.14,NE,43,1.0,2.0,83,0.00,,,0.00,weatherlink.com 1.10,2013-02-27 12:13:00,
2013-02-27 04:28:00,37.5,33.0,30.15,NE,43,1.0,2.0,83,0.00,,,0.00,weatherlink.com 1.10,2013-02-27 12:28:00,
2013-02-27 04:43:00,37.4,33.0,30.15,NE,54,0.0,3.0,83,0.00,,,0.00,weatherlink.com 1.10,2013-02-27 12:43:00,
2013-02-27 04:58:00,37.2,33.0,30.16,NE,53,2.0,2.0,84,0.00,,,0.00,weatherlink.com 1.10,2013-02-27 12:58:00,
2013-02-27 05:13:00,36.9,33.0,30.15,ENE,60,1.0,2.0,84,0.00,,,0.00,weatherlink.com 1.10,2013-02-27 13:13:00,
2013-02-27 05:28:00,37.0,33.0,30.16,NE,49,1.0,2.0,85,0.00,,,0.00,weatherlink.com 1.10,2013-02-27 13:28:00,
2013-02-27 05:43:00,36.9,33.0,30.16,ENE,68,0.0,2.0,84,0.00,,,0.00,weatherlink.com 1.10,2013-02-27 13:43:00,
2013-02-27 05:58:00,37.0,33.0,30.16,NE,46,0.0,2.0,85,0.00,,,0.00,weatherlink.com 1.10,2013-02-27 13:58:00,
2013-02-27 06:13:00,37.1,33.0,30.16,NNE,30,1.0,2.0,84,0.00,,,0.00,weatherlink.com 1.10,2013-02-27 14:13:00,
2013-02-27 06:28:00,36.6,33.0,30.16,NE,48,2.0,2.0,85,0.00,,,0.00,weatherlink.com 1.10,2013-02-27 14:28:00,
2013-02-27 06:43:00,36.5,33.0,30.16,NE,34,0.0,2.0,86,0.00,,,0.00,weatherlink.com 1.10,2013-02-27 14:43:00,
2013-02-27 06:59:00,37.3,33.0,30.17,NE,43,1.0,3.0,85,0.00,,,0.00,weatherlink.com 1.10,2013-02-27 14:59:00,
2013-02-27 07:14:00,38.5,33.0,30.17,NE,47,0.0,2.0,82,0.00,,,0.00,weatherlink.com 1.10,2013-02-27 15:14:00,
2013-02-27 07:29:00,39.4,34.0,30.19,West,280,1.0,3.0,82,0.00,,,0.00,weatherlink.com 1.10,2013-02-27 15:29:00,
2013-02-27 07:44:00,40.9,35.0,30.20,NNE,13,0.0,2.0,79,0.00,,,0.00,weatherlink.com 1.10,2013-02-27 15:44:00,
2013-02-27 07:59:00,41.9,36.0,30.20,ENE,68,1.0,2.0,79,0.00,,,0.00,weatherlink.com 1.10,2013-02-27 15:59:00,
2013-02-27 08:14:00,43.3,36.0,30.21,NE,37,0.0,2.0,76,0.00,,,0.00,weatherlink.com 1.10,2013-02-27 16:14:00,
2013-02-27 08:29:00,46.3,38.0,30.22,East,81,0.0,1.0,74,0.00,,,0.00,weatherlink.com 1.10,2013-02-27 16:29:00,
2013-02-27 08:44:00,50.7,39.0,30.21,WNW,290,2.0,2.0,65,0.00,,,0.00,weatherlink.com 1.10,2013-02-27 16:44:00,
2013-02-27 08:59:00,51.4,39.0,30.22,West,266,0.0,2.0,62,0.00,,,0.00,weatherlink.com 1.10,2013-02-27 16:59:00,
2013-02-27 09:14:00,53.2,39.0,30.22,WSW,248,1.0,3.0,59,0.00,,,0.00,weatherlink.com 1.10,2013-02-27 17:14:00,
2013-02-27 09:29:00,54.4,39.0,30.22,WSW,239,0.0,2.0,56,0.00,,,0.00,weatherlink.com 1.10,2013-02-27 17:29:00,
2013-02-27 09:44:00,56.6,39.0,30.22,SSW,207,0.0,2.0,53,0.00,,,0.00,weatherlink.com 1.10,2013-02-27 17:44:00,
2013-02-27 10:00:00,57.4,39.0,30.22,WSW,249,3.0,3.0,50,0.00,,,0.00,weatherlink.com 1.10,2013-02-27 18:00:00,
2013-02-27 10:14:00,59.2,40.0,30.22,SSE,152,0.0,2.0,50,0.00,,,0.00,weatherlink.com 1.10,2013-02-27 18:14:00,
2013-02-27 10:29:00,61.7,43.0,30.22,South,187,2.0,3.0,50,0.00,,,0.00,weatherlink.com 1.10,2013-02-27 18:29:00,
2013-02-27 10:44:00,62.3,45.0,30.21,South,179,1.0,4.0,54,0.00,,,0.00,weatherlink.com 1.10,2013-02-27 18:44:00,
2013-02-27 11:14:00,61.6,47.0,30.21,South,188,2.0,4.0,60,0.00,,,0.00,weatherlink.com 1.10,2013-02-27 19:14:00,
2013-02-27 11:30:00,61.3,47.0,30.21,South,169,4.0,5.0,60,0.00,,,0.00,weatherlink.com 1.10,2013-02-27 19:30:00,
2013-02-27 11:44:00,60.9,48.0,30.20,SE,142,2.0,5.0,62,0.00,,,0.00,weatherlink.com 1.10,2013-02-27 19:44:00,
2013-02-27 11:59:00,60.9,46.0,30.20,SSE,167,2.0,5.0,59,0.00,,,0.00,weatherlink.com 1.10,2013-02-27 19:59:00,
2013-02-27 12:15:00,61.0,46.0,30.19,SSW,212,1.0,6.0,58,0.00,,,0.00,weatherlink.com 1.10,2013-02-27 20:15:00,
2013-02-27 12:30:00,61.3,47.0,30.19,SSE,162,2.0,5.0,59,0.00,,,0.00,weatherlink.com 1.10,2013-02-27 20:30:00,
2013-02-27 12:45:00,60.7,45.0,30.19,WSW,238,5.0,6.0,56,0.00,,,0.00,weatherlink.com 1.10,2013-02-27 20:45:00,
2013-02-27 13:00:00,62.3,42.0,30.18,SE,139,0.0,5.0,48,0.00,,,0.00,weatherlink.com 1.10,2013-02-27 21:00:00,
2013-02-27 13:15:00,65.0,42.0,30.18,SW,230,3.0,5.0,44,0.00,,,0.00,weatherlink.com 1.10,2013-02-27 21:15:00,
2013-02-27 13:30:00,65.6,42.0,30.18,SW,219,3.0,6.0,42,0.00,,,0.00,weatherlink.com 1.10,2013-02-27 21:30:00,
2013-02-27 13:45:00,65.6,42.0,30.17,SSE,155,4.0,6.0,42,0.00,,,0.00,weatherlink.com 1.10,2013-02-27 21:45:00,
2013-02-27 14:00:00,66.0,41.0,30.16,SE,145,3.0,5.0,41,0.00,,,0.00,weatherlink.com 1.10,2013-02-27 22:00:00,
2013-02-27 14:15:00,65.2,39.0,30.16,ESE,111,1.0,6.0,38,0.00,,,0.00,weatherlink.com 1.10,2013-02-27 22:15:00,
2013-02-27 14:30:00,66.3,37.0,30.16,SE,126,4.0,6.0,34,0.00,,,0.00,weatherlink.com 1.10,2013-02-27 22:30:00,
2013-02-27 14:45:00,66.0,36.0,30.16,SSW,210,4.0,6.0,33,0.00,,,0.00,weatherlink.com 1.10,2013-02-27 22:45:00,
2013-02-27 15:00:00,63.7,43.0,30.16,ESE,113,5.0,6.0,48,0.00,,,0.00,weatherlink.com 1.10,2013-02-27 23:00:00,
2013-02-27 15:15:00,64.9,38.0,30.16,ESE,115,2.0,5.0,37,0.00,,,0.00,weatherlink.com 1.10,2013-02-27 23:15:00,
2013-02-27 15:30:00,66.4,41.0,30.16,SW,233,2.0,6.0,39,0.00,,,0.00,weatherlink.com 1.10,2013-02-27 23:30:00,
2013-02-27 15:45:00,66.6,46.0,30.16,SW,217,3.0,5.0,48,0.00,,,0.00,weatherlink.com 1.10,2013-02-27 23:45:00,
2013-02-27 16:00:00,65.5,47.0,30.16,SE,132,4.0,5.0,52,0.00,,,0.00,weatherlink.com 1.10,2013-02-28 00:00:00,
2013-02-27 16:15:00,63.9,48.0,30.16,SSE,155,2.0,6.0,56,0.00,,,0.00,weatherlink.com 1.10,2013-02-28 00:15:00,
2013-02-27 16:30:00,61.8,48.0,30.16,SE,135,4.0,4.0,62,0.00,,,0.00,weatherlink.com 1.10,2013-02-28 00:30:00,
2013-02-27 16:45:00,61.3,47.0,30.16,East,96,2.0,4.0,59,0.00,,,0.00,weatherlink.com 1.10,2013-02-28 00:45:00,
2013-02-27 17:00:00,61.2,47.0,30.17,ESE,120,1.0,7.0,60,0.00,,,0.00,weatherlink.com 1.10,2013-02-28 01:00:00,
2013-02-27 17:15:00,60.0,49.0,30.17,East,84,3.0,7.0,67,0.00,,,0.00,weatherlink.com 1.10,2013-02-28 01:15:00,
2013-02-27 17:30:00,55.8,48.0,30.18,East,101,4.0,8.0,76,0.00,,,0.00,weatherlink.com 1.10,2013-02-28 01:30:00,
2013-02-27 17:45:00,53.6,48.0,30.18,East,98,3.0,9.0,81,0.00,,,0.00,weatherlink.com 1.10,2013-02-28 01:45:00,
2013-02-27 18:00:00,52.5,48.0,30.18,East,98,2.0,7.0,84,0.00,,,0.00,weatherlink.com 1.10,2013-02-28 02:00:00,
2013-02-27 18:15:00,51.9,48.0,30.18,ESE,121,1.0,5.0,85,0.00,,,0.00,weatherlink.com 1.10,2013-02-28 02:15:00,
2013-02-27 18:30:00,51.6,48.0,30.20,SSE,150,1.0,4.0,86,0.00,,,0.00,weatherlink.com 1.10,2013-02-28 02:30:00,
2013-02-27 18:45:00,51.4,48.0,30.20,SE,136,0.0,3.0,88,0.00,,,0.00,weatherlink.com 1.10,2013-02-28 02:45:00,
2013-02-27 19:00:00,51.0,48.0,30.21,SE,145,1.0,2.0,89,0.00,,,0.00,weatherlink.com 1.10,2013-02-28 03:00:00,
2013-02-27 19:15:00,50.8,48.0,30.22,SSE,161,0.0,1.0,89,0.00,,,0.00,weatherlink.com 1.10,2013-02-28 03:15:00,
2013-02-27 19:30:00,50.3,48.0,30.23,SE,136,0.0,1.0,90,0.00,,,0.00,weatherlink.com 1.10,2013-02-28 03:30:00,
2013-02-27 19:45:00,49.8,47.0,30.23,East,94,0.0,1.0,90,0.00,,,0.00,weatherlink.com 1.10,2013-02-28 03:45:00,
2013-02-27 20:01:00,48.9,46.0,30.23,East,93,0.0,0.0,91,0.00,,,0.00,weatherlink.com 1.10,2013-02-28 04:01:00,
2013-02-27 20:31:00,47.5,45.0,30.25,East,91,0.0,1.0,92,0.00,,,0.00,weatherlink.com 1.10,2013-02-28 04:31:00,
2013-02-27 20:46:00,47.0,45.0,30.25,East,93,0.0,0.0,93,0.00,,,0.00,weatherlink.com 1.10,2013-02-28 04:46:00,
2013-02-27 21:01:00,46.4,44.0,30.25,East,93,0.0,0.0,92,0.00,,,0.00,weatherlink.com 1.10,2013-02-28 05:01:00,
2013-02-27 21:16:00,45.9,44.0,30.25,East,93,0.0,0.0,92,0.00,,,0.00,weatherlink.com 1.10,2013-02-28 05:16:00,
2013-02-27 21:31:00,46.0,44.0,30.26,North,360,0.0,1.0,93,0.00,,,0.00,weatherlink.com 1.10,2013-02-28 05:31:00,
2013-02-27 21:46:00,45.7,44.0,30.26,NE,42,0.0,2.0,93,0.00,,,0.00,weatherlink.com 1.10,2013-02-28 05:46:00,
2013-02-27 22:01:00,45.3,43.0,30.26,NE,40,0.0,2.0,92,0.00,,,0.00,weatherlink.com 1.10,2013-02-28 06:01:00,
2013-02-27 22:16:00,45.2,43.0,30.26,North,358,1.0,1.0,91,0.00,,,0.00,weatherlink.com 1.10,2013-02-28 06:16:00,
2013-02-27 22:31:00,44.9,42.0,30.27,NNE,33,0.0,2.0,90,0.00,,,0.00,weatherlink.com 1.10,2013-02-28 06:31:00,
2013-02-27 22:46:00,44.8,42.0,30.27,NE,46,0.0,1.0,89,0.00,,,0.00,weatherlink.com 1.10,2013-02-28 06:46:00,
2013-02-27 23:01:00,44.9,42.0,30.27,North,355,0.0,2.0,88,0.00,,,0.00,weatherlink.com 1.10,2013-02-28 07:01:00,
2013-02-27 23:16:00,44.8,42.0,30.27,North,355,0.0,0.0,88,0.00,,,0.00,weatherlink.com 1.10,2013-02-28 07:16:00,
2013-02-27 23:31:00,44.5,41.0,30.27,North,357,0.0,0.0,88,0.00,,,0.00,weatherlink.com 1.10,2013-02-28 07:31:00,
2013-02-27 23:46:00,44.6,42.0,30.27,NE,39,0.0,1.0,89,0.00,,,0.00,weatherlink.com 1.10,2013-02-28 07:46:00,